sensor_id;sensor_type;location;lat;lon;timestamp;temperature;humidity
19256;DHT22;9762;52.490;13.410;2023-10-31T00:01:49;17.40;94.80
19256;DHT22;9762;52.490;13.410;2023-10-31T00:04:15;17.40;94.90
19256;DHT22;9762;52.490;13.410;2023-10-31T00:06:41;17.40;94.90
19256;DHT22;9762;52.490;13.410;2023-10-31T00:09:07;17.40;94.90
19256;DHT22;9762;52.490;13.410;2023-10-31T00:11:33;17.50;94.90
19256;DHT22;9762;52.490;13.410;2023-10-31T00:13:59;17.50;94.90
19256;DHT22;9762;52.490;13.410;2023-10-31T00:16:24;17.50;94.90
19256;DHT22;9762;52.490;13.410;2023-10-31T00:18:50;17.50;94.90
19256;DHT22;9762;52.490;13.410;2023-10-31T00:21:16;17.50;94.90
19256;DHT22;9762;52.490;13.410;2023-10-31T00:23:45;17.50;94.90
19256;DHT22;9762;52.490;13.410;2023-10-31T00:26:11;17.50;94.90
19256;DHT22;9762;52.490;13.410;2023-10-31T00:28:37;17.50;94.80
19256;DHT22;9762;52.490;13.410;2023-10-31T00:31:03;17.50;94.90
19256;DHT22;9762;52.490;13.410;2023-10-31T00:33:29;17.50;94.90
19256;DHT22;9762;52.490;13.410;2023-10-31T00:35:55;17.50;95.00
19256;DHT22;9762;52.490;13.410;2023-10-31T00:38:21;17.50;95.00
19256;DHT22;9762;52.490;13.410;2023-10-31T00:40:46;17.50;95.10
19256;DHT22;9762;52.490;13.410;2023-10-31T00:43:12;17.50;95.10
19256;DHT22;9762;52.490;13.410;2023-10-31T00:45:38;17.50;95.20
19256;DHT22;9762;52.490;13.410;2023-10-31T00:48:04;17.50;95.20
19256;DHT22;9762;52.490;13.410;2023-10-31T00:50:30;17.50;95.20
19256;DHT22;9762;52.490;13.410;2023-10-31T00:52:55;17.50;95.30
19256;DHT22;9762;52.490;13.410;2023-10-31T00:55:21;17.50;95.30
19256;DHT22;9762;52.490;13.410;2023-10-31T00:57:46;17.50;95.30
19256;DHT22;9762;52.490;13.410;2023-10-31T01:00:12;17.50;95.40
19256;DHT22;9762;52.490;13.410;2023-10-31T01:02:38;17.50;95.40
19256;DHT22;9762;52.490;13.410;2023-10-31T01:05:04;17.50;95.40
19256;DHT22;9762;52.490;13.410;2023-10-31T01:07:30;17.50;95.50
19256;DHT22;9762;52.490;13.410;2023-10-31T01:09:55;17.50;95.50
19256;DHT22;9762;52.490;13.410;2023-10-31T01:12:21;17.50;95.60
19256;DHT22;9762;52.490;13.410;2023-10-31T01:14:47;17.50;95.60
19256;DHT22;9762;52.490;13.410;2023-10-31T01:17:12;17.50;95.60
19256;DHT22;9762;52.490;13.410;2023-10-31T01:19:38;17.50;95.70
19256;DHT22;9762;52.490;13.410;2023-10-31T01:22:04;17.50;95.70
19256;DHT22;9762;52.490;13.410;2023-10-31T01:24:29;17.50;95.70
19256;DHT22;9762;52.490;13.410;2023-10-31T01:26:55;17.50;95.70
19256;DHT22;9762;52.490;13.410;2023-10-31T01:29:21;17.50;95.80
19256;DHT22;9762;52.490;13.410;2023-10-31T01:31:46;17.50;95.90
19256;DHT22;9762;52.490;13.410;2023-10-31T01:34:12;17.50;96.00
19256;DHT22;9762;52.490;13.410;2023-10-31T01:36:37;17.50;96.00
19256;DHT22;9762;52.490;13.410;2023-10-31T01:39:03;17.50;96.10
19256;DHT22;9762;52.490;13.410;2023-10-31T01:41:29;17.50;96.00
19256;DHT22;9762;52.490;13.410;2023-10-31T01:43:54;17.40;96.00
19256;DHT22;9762;52.490;13.410;2023-10-31T01:46:20;17.40;96.00
19256;DHT22;9762;52.490;13.410;2023-10-31T01:48:46;17.40;96.00
19256;DHT22;9762;52.490;13.410;2023-10-31T01:51:11;17.40;96.10
19256;DHT22;9762;52.490;13.410;2023-10-31T01:53:37;17.40;96.10
19256;DHT22;9762;52.490;13.410;2023-10-31T01:56:03;17.40;96.30
19256;DHT22;9762;52.490;13.410;2023-10-31T01:58:33;17.40;96.20
19256;DHT22;9762;52.490;13.410;2023-10-31T02:01:00;17.40;96.40
19256;DHT22;9762;52.490;13.410;2023-10-31T02:03:29;17.40;96.60
19256;DHT22;9762;52.490;13.410;2023-10-31T02:05:55;17.40;96.80
19256;DHT22;9762;52.490;13.410;2023-10-31T02:08:21;17.40;96.80
19256;DHT22;9762;52.490;13.410;2023-10-31T02:10:47;17.40;96.70
19256;DHT22;9762;52.490;13.410;2023-10-31T02:13:17;17.40;96.80
19256;DHT22;9762;52.490;13.410;2023-10-31T02:15:44;17.40;96.90
19256;DHT22;9762;52.490;13.410;2023-10-31T02:18:10;17.40;97.00
19256;DHT22;9762;52.490;13.410;2023-10-31T02:20:36;17.30;97.20
19256;DHT22;9762;52.490;13.410;2023-10-31T02:23:02;17.40;97.50
19256;DHT22;9762;52.490;13.410;2023-10-31T02:25:28;17.30;97.20
19256;DHT22;9762;52.490;13.410;2023-10-31T02:27:54;17.30;97.20
19256;DHT22;9762;52.490;13.410;2023-10-31T02:30:19;17.30;97.20
19256;DHT22;9762;52.490;13.410;2023-10-31T02:32:45;17.30;97.20
19256;DHT22;9762;52.490;13.410;2023-10-31T02:38:32;17.30;97.30
19256;DHT22;9762;52.490;13.410;2023-10-31T02:40:58;17.30;97.30
19256;DHT22;9762;52.490;13.410;2023-10-31T02:43:24;17.30;97.30
19256;DHT22;9762;52.490;13.410;2023-10-31T02:45:49;17.30;97.40
19256;DHT22;9762;52.490;13.410;2023-10-31T02:48:41;17.30;97.40
19256;DHT22;9762;52.490;13.410;2023-10-31T02:51:07;17.30;97.50
19256;DHT22;9762;52.490;13.410;2023-10-31T02:53:34;17.30;97.50
19256;DHT22;9762;52.490;13.410;2023-10-31T02:56:00;17.20;97.50
19256;DHT22;9762;52.490;13.410;2023-10-31T02:58:26;17.20;97.60
19256;DHT22;9762;52.490;13.410;2023-10-31T03:00:51;17.20;97.70
19256;DHT22;9762;52.490;13.410;2023-10-31T03:03:17;17.20;97.70
19256;DHT22;9762;52.490;13.410;2023-10-31T03:05:42;17.20;97.70
19256;DHT22;9762;52.490;13.410;2023-10-31T03:08:08;17.20;97.70
19256;DHT22;9762;52.490;13.410;2023-10-31T03:10:37;17.10;97.60
19256;DHT22;9762;52.490;13.410;2023-10-31T03:13:03;17.10;97.70
19256;DHT22;9762;52.490;13.410;2023-10-31T03:15:29;17.10;97.80
19256;DHT22;9762;52.490;13.410;2023-10-31T03:17:54;17.10;97.80
19256;DHT22;9762;52.490;13.410;2023-10-31T03:20:20;17.10;97.90
19256;DHT22;9762;52.490;13.410;2023-10-31T03:22:45;17.10;98.00
19256;DHT22;9762;52.490;13.410;2023-10-31T03:25:11;17.10;98.00
19256;DHT22;9762;52.490;13.410;2023-10-31T03:27:37;17.10;98.00
19256;DHT22;9762;52.490;13.410;2023-10-31T03:30:03;17.10;98.10
19256;DHT22;9762;52.490;13.410;2023-10-31T03:32:29;17.10;98.10
19256;DHT22;9762;52.490;13.410;2023-10-31T03:34:55;17.10;98.20
19256;DHT22;9762;52.490;13.410;2023-10-31T03:37:20;17.00;98.20
19256;DHT22;9762;52.490;13.410;2023-10-31T03:39:46;17.10;98.30
19256;DHT22;9762;52.490;13.410;2023-10-31T03:42:11;17.00;98.20
19256;DHT22;9762;52.490;13.410;2023-10-31T03:44:37;17.00;98.20
19256;DHT22;9762;52.490;13.410;2023-10-31T03:47:02;17.00;98.30
19256;DHT22;9762;52.490;13.410;2023-10-31T03:49:28;17.00;98.30
19256;DHT22;9762;52.490;13.410;2023-10-31T03:51:54;17.00;98.30
19256;DHT22;9762;52.490;13.410;2023-10-31T03:54:19;17.00;98.40
19256;DHT22;9762;52.490;13.410;2023-10-31T03:56:45;16.90;98.40
19256;DHT22;9762;52.490;13.410;2023-10-31T03:59:11;16.90;98.40
19256;DHT22;9762;52.490;13.410;2023-10-31T04:01:36;16.90;98.50
19256;DHT22;9762;52.490;13.410;2023-10-31T04:04:02;16.80;98.60
19256;DHT22;9762;52.490;13.410;2023-10-31T04:06:28;16.80;98.70
19256;DHT22;9762;52.490;13.410;2023-10-31T04:08:54;16.80;98.70
19256;DHT22;9762;52.490;13.410;2023-10-31T04:11:20;16.80;98.80
19256;DHT22;9762;52.490;13.410;2023-10-31T04:13:45;16.80;98.80
19256;DHT22;9762;52.490;13.410;2023-10-31T04:16:11;16.80;98.80
19256;DHT22;9762;52.490;13.410;2023-10-31T04:18:37;16.80;98.70
19256;DHT22;9762;52.490;13.410;2023-10-31T04:21:03;16.70;98.70
19256;DHT22;9762;52.490;13.410;2023-10-31T04:23:29;16.70;98.80
19256;DHT22;9762;52.490;13.410;2023-10-31T04:25:54;16.70;98.90
19256;DHT22;9762;52.490;13.410;2023-10-31T04:28:20;16.70;99.10
19256;DHT22;9762;52.490;13.410;2023-10-31T04:30:46;16.60;99.10
19256;DHT22;9762;52.490;13.410;2023-10-31T04:33:11;16.70;99.10
19256;DHT22;9762;52.490;13.410;2023-10-31T04:35:37;16.60;99.10
19256;DHT22;9762;52.490;13.410;2023-10-31T04:38:02;16.60;99.30
19256;DHT22;9762;52.490;13.410;2023-10-31T04:40:28;16.50;99.50
19256;DHT22;9762;52.490;13.410;2023-10-31T04:42:54;16.50;99.60
19256;DHT22;9762;52.490;13.410;2023-10-31T04:45:20;16.50;99.60
19256;DHT22;9762;52.490;13.410;2023-10-31T04:47:45;16.50;99.60
19256;DHT22;9762;52.490;13.410;2023-10-31T04:50:11;16.50;99.80
19256;DHT22;9762;52.490;13.410;2023-10-31T04:52:37;16.50;99.90
19256;DHT22;9762;52.490;13.410;2023-10-31T04:55:02;16.40;99.90
19256;DHT22;9762;52.490;13.410;2023-10-31T04:57:28;16.50;99.90
19256;DHT22;9762;52.490;13.410;2023-10-31T04:59:54;16.40;99.90
19256;DHT22;9762;52.490;13.410;2023-10-31T05:02:23;16.40;99.90
19256;DHT22;9762;52.490;13.410;2023-10-31T05:04:48;16.40;99.90
19256;DHT22;9762;52.490;13.410;2023-10-31T05:07:17;16.40;99.90
19256;DHT22;9762;52.490;13.410;2023-10-31T05:09:42;16.40;99.90
19256;DHT22;9762;52.490;13.410;2023-10-31T05:12:08;16.40;99.90
19256;DHT22;9762;52.490;13.410;2023-10-31T05:14:34;16.50;99.90
19256;DHT22;9762;52.490;13.410;2023-10-31T05:17:00;16.50;99.90
19256;DHT22;9762;52.490;13.410;2023-10-31T05:19:26;16.50;99.90
19256;DHT22;9762;52.490;13.410;2023-10-31T05:21:51;16.50;99.90
19256;DHT22;9762;52.490;13.410;2023-10-31T05:24:18;16.50;99.90
19256;DHT22;9762;52.490;13.410;2023-10-31T05:26:43;16.40;99.90
19256;DHT22;9762;52.490;13.410;2023-10-31T05:29:10;16.50;99.90
19256;DHT22;9762;52.490;13.410;2023-10-31T05:31:35;16.50;99.90
19256;DHT22;9762;52.490;13.410;2023-10-31T05:34:01;16.50;99.90
19256;DHT22;9762;52.490;13.410;2023-10-31T05:36:29;16.50;99.90
19256;DHT22;9762;52.490;13.410;2023-10-31T05:38:54;16.50;99.90
19256;DHT22;9762;52.490;13.410;2023-10-31T05:41:20;16.50;99.90
19256;DHT22;9762;52.490;13.410;2023-10-31T05:43:46;16.50;99.90
19256;DHT22;9762;52.490;13.410;2023-10-31T05:46:11;16.50;99.90
19256;DHT22;9762;52.490;13.410;2023-10-31T05:48:40;16.50;99.90
19256;DHT22;9762;52.490;13.410;2023-10-31T05:51:13;16.50;99.90
19256;DHT22;9762;52.490;13.410;2023-10-31T05:53:40;16.50;99.90
19256;DHT22;9762;52.490;13.410;2023-10-31T05:56:06;16.50;99.90
19256;DHT22;9762;52.490;13.410;2023-10-31T05:58:33;16.60;99.90
19256;DHT22;9762;52.490;13.410;2023-10-31T06:00:58;16.50;99.90
19256;DHT22;9762;52.490;13.410;2023-10-31T06:03:24;16.50;99.90
19256;DHT22;9762;52.490;13.410;2023-10-31T06:05:49;16.50;99.90
19256;DHT22;9762;52.490;13.410;2023-10-31T06:08:15;16.50;99.90
19256;DHT22;9762;52.490;13.410;2023-10-31T06:10:41;16.50;99.90
19256;DHT22;9762;52.490;13.410;2023-10-31T06:13:06;16.50;99.90
19256;DHT22;9762;52.490;13.410;2023-10-31T06:15:32;16.50;99.90
19256;DHT22;9762;52.490;13.410;2023-10-31T06:17:58;16.50;99.90
19256;DHT22;9762;52.490;13.410;2023-10-31T06:20:23;16.50;99.90
19256;DHT22;9762;52.490;13.410;2023-10-31T06:22:49;16.50;99.90
19256;DHT22;9762;52.490;13.410;2023-10-31T06:25:15;16.50;99.90
19256;DHT22;9762;52.490;13.410;2023-10-31T06:27:40;16.50;99.90
19256;DHT22;9762;52.490;13.410;2023-10-31T06:30:06;16.50;99.90
19256;DHT22;9762;52.490;13.410;2023-10-31T06:32:32;16.50;99.90
19256;DHT22;9762;52.490;13.410;2023-10-31T06:34:57;16.50;99.90
19256;DHT22;9762;52.490;13.410;2023-10-31T06:37:23;16.50;99.90
19256;DHT22;9762;52.490;13.410;2023-10-31T06:39:49;16.50;99.90
19256;DHT22;9762;52.490;13.410;2023-10-31T06:42:14;16.50;99.90
19256;DHT22;9762;52.490;13.410;2023-10-31T06:44:40;16.50;99.90
19256;DHT22;9762;52.490;13.410;2023-10-31T06:47:06;16.50;99.90
19256;DHT22;9762;52.490;13.410;2023-10-31T06:49:31;16.60;99.90
19256;DHT22;9762;52.490;13.410;2023-10-31T06:51:57;16.60;99.90
19256;DHT22;9762;52.490;13.410;2023-10-31T06:54:22;16.60;99.90
19256;DHT22;9762;52.490;13.410;2023-10-31T06:56:48;16.70;99.90
19256;DHT22;9762;52.490;13.410;2023-10-31T06:59:14;16.70;99.90
19256;DHT22;9762;52.490;13.410;2023-10-31T07:01:39;16.80;99.90
19256;DHT22;9762;52.490;13.410;2023-10-31T07:04:05;16.80;99.90
19256;DHT22;9762;52.490;13.410;2023-10-31T07:06:31;16.90;99.90
19256;DHT22;9762;52.490;13.410;2023-10-31T07:08:56;16.90;99.90
19256;DHT22;9762;52.490;13.410;2023-10-31T07:11:22;16.90;99.90
19256;DHT22;9762;52.490;13.410;2023-10-31T07:13:48;16.90;99.90
19256;DHT22;9762;52.490;13.410;2023-10-31T07:16:14;17.00;99.90
19256;DHT22;9762;52.490;13.410;2023-10-31T07:18:39;17.00;99.90
19256;DHT22;9762;52.490;13.410;2023-10-31T07:21:05;17.00;99.90
19256;DHT22;9762;52.490;13.410;2023-10-31T07:23:31;17.00;99.90
19256;DHT22;9762;52.490;13.410;2023-10-31T07:25:57;17.00;99.90
19256;DHT22;9762;52.490;13.410;2023-10-31T07:28:22;17.00;99.90
19256;DHT22;9762;52.490;13.410;2023-10-31T07:34:10;17.10;99.90
19256;DHT22;9762;52.490;13.410;2023-10-31T07:36:37;17.00;99.90
19256;DHT22;9762;52.490;13.410;2023-10-31T07:39:02;17.00;99.90
19256;DHT22;9762;52.490;13.410;2023-10-31T07:41:29;17.00;99.90
19256;DHT22;9762;52.490;13.410;2023-10-31T07:43:55;17.00;99.90
19256;DHT22;9762;52.490;13.410;2023-10-31T07:46:21;16.90;99.50
19256;DHT22;9762;52.490;13.410;2023-10-31T07:48:46;16.80;99.20
19256;DHT22;9762;52.490;13.410;2023-10-31T07:51:12;16.80;99.50
19256;DHT22;9762;52.490;13.410;2023-10-31T07:53:38;16.80;99.50
19256;DHT22;9762;52.490;13.410;2023-10-31T07:56:03;16.80;99.20
19256;DHT22;9762;52.490;13.410;2023-10-31T07:58:29;16.70;98.70
19256;DHT22;9762;52.490;13.410;2023-10-31T08:00:55;16.60;98.40
19256;DHT22;9762;52.490;13.410;2023-10-31T08:03:21;16.60;98.20
19256;DHT22;9762;52.490;13.410;2023-10-31T08:05:47;16.50;98.00
19256;DHT22;9762;52.490;13.410;2023-10-31T08:08:12;16.50;98.10
19256;DHT22;9762;52.490;13.410;2023-10-31T08:10:38;16.50;97.60
19256;DHT22;9762;52.490;13.410;2023-10-31T08:13:04;16.50;97.50
19256;DHT22;9762;52.490;13.410;2023-10-31T08:15:29;16.50;97.00
19256;DHT22;9762;52.490;13.410;2023-10-31T08:17:55;16.50;96.90
19256;DHT22;9762;52.490;13.410;2023-10-31T08:20:20;16.50;97.00
19256;DHT22;9762;52.490;13.410;2023-10-31T08:22:46;16.50;96.90
19256;DHT22;9762;52.490;13.410;2023-10-31T08:25:11;16.50;96.80
19256;DHT22;9762;52.490;13.410;2023-10-31T08:27:37;16.50;96.80
19256;DHT22;9762;52.490;13.410;2023-10-31T08:30:03;16.50;96.50
19256;DHT22;9762;52.490;13.410;2023-10-31T08:32:29;16.60;96.20
19256;DHT22;9762;52.490;13.410;2023-10-31T08:34:54;16.50;95.90
19256;DHT22;9762;52.490;13.410;2023-10-31T08:37:21;16.50;95.60
19256;DHT22;9762;52.490;13.410;2023-10-31T08:39:47;16.50;95.80
19256;DHT22;9762;52.490;13.410;2023-10-31T08:42:12;16.50;95.70
19256;DHT22;9762;52.490;13.410;2023-10-31T08:44:40;16.50;95.40
19256;DHT22;9762;52.490;13.410;2023-10-31T08:47:05;16.50;95.00
19256;DHT22;9762;52.490;13.410;2023-10-31T08:49:32;16.50;95.30
19256;DHT22;9762;52.490;13.410;2023-10-31T08:51:57;16.50;95.20
19256;DHT22;9762;52.490;13.410;2023-10-31T08:54:23;16.50;95.00
19256;DHT22;9762;52.490;13.410;2023-10-31T08:56:48;16.50;95.10
19256;DHT22;9762;52.490;13.410;2023-10-31T08:59:14;16.50;94.90
19256;DHT22;9762;52.490;13.410;2023-10-31T09:01:39;16.50;94.60
19256;DHT22;9762;52.490;13.410;2023-10-31T09:04:05;16.50;94.30
19256;DHT22;9762;52.490;13.410;2023-10-31T09:06:31;16.50;94.20
19256;DHT22;9762;52.490;13.410;2023-10-31T09:08:56;16.40;94.30
19256;DHT22;9762;52.490;13.410;2023-10-31T09:11:22;16.40;94.10
19256;DHT22;9762;52.490;13.410;2023-10-31T09:13:48;16.40;93.90
19256;DHT22;9762;52.490;13.410;2023-10-31T09:16:14;16.30;94.00
19256;DHT22;9762;52.490;13.410;2023-10-31T09:18:40;16.40;93.90
19256;DHT22;9762;52.490;13.410;2023-10-31T09:21:07;16.40;93.80
19256;DHT22;9762;52.490;13.410;2023-10-31T09:23:32;16.40;93.30
19256;DHT22;9762;52.490;13.410;2023-10-31T09:25:59;16.50;93.30
19256;DHT22;9762;52.490;13.410;2023-10-31T09:28:24;16.50;93.10
19256;DHT22;9762;52.490;13.410;2023-10-31T09:30:50;16.50;93.60
19256;DHT22;9762;52.490;13.410;2023-10-31T09:33:16;16.50;93.00
19256;DHT22;9762;52.490;13.410;2023-10-31T09:35:41;16.60;92.80
19256;DHT22;9762;52.490;13.410;2023-10-31T09:38:07;16.50;92.40
19256;DHT22;9762;52.490;13.410;2023-10-31T09:40:32;16.50;92.70
19256;DHT22;9762;52.490;13.410;2023-10-31T09:42:58;16.50;92.80
19256;DHT22;9762;52.490;13.410;2023-10-31T09:45:23;16.60;92.70
19256;DHT22;9762;52.490;13.410;2023-10-31T09:47:49;16.60;92.80
19256;DHT22;9762;52.490;13.410;2023-10-31T09:50:15;16.60;92.60
19256;DHT22;9762;52.490;13.410;2023-10-31T09:52:40;16.60;92.70
19256;DHT22;9762;52.490;13.410;2023-10-31T09:55:06;16.60;92.20
19256;DHT22;9762;52.490;13.410;2023-10-31T09:57:33;16.60;92.40
19256;DHT22;9762;52.490;13.410;2023-10-31T09:59:59;16.60;92.40
19256;DHT22;9762;52.490;13.410;2023-10-31T10:02:24;16.70;92.30
19256;DHT22;9762;52.490;13.410;2023-10-31T10:04:51;16.70;92.20
19256;DHT22;9762;52.490;13.410;2023-10-31T10:07:17;16.70;92.00
19256;DHT22;9762;52.490;13.410;2023-10-31T10:09:44;16.70;92.10
19256;DHT22;9762;52.490;13.410;2023-10-31T10:12:14;16.80;92.10
19256;DHT22;9762;52.490;13.410;2023-10-31T10:14:40;16.80;92.10
19256;DHT22;9762;52.490;13.410;2023-10-31T10:17:21;16.90;92.00
19256;DHT22;9762;52.490;13.410;2023-10-31T10:19:47;16.90;91.90
19256;DHT22;9762;52.490;13.410;2023-10-31T10:22:13;16.90;91.40
19256;DHT22;9762;52.490;13.410;2023-10-31T10:24:41;16.90;91.50
19256;DHT22;9762;52.490;13.410;2023-10-31T10:27:08;16.90;91.70
19256;DHT22;9762;52.490;13.410;2023-10-31T10:29:34;16.90;91.50
19256;DHT22;9762;52.490;13.410;2023-10-31T10:32:00;16.90;91.60
19256;DHT22;9762;52.490;13.410;2023-10-31T10:34:26;16.90;91.60
19256;DHT22;9762;52.490;13.410;2023-10-31T10:36:53;17.00;91.70
19256;DHT22;9762;52.490;13.410;2023-10-31T10:39:22;17.00;91.50
19256;DHT22;9762;52.490;13.410;2023-10-31T10:41:55;17.00;91.20
19256;DHT22;9762;52.490;13.410;2023-10-31T10:46:55;17.10;91.20
19256;DHT22;9762;52.490;13.410;2023-10-31T10:49:24;17.10;91.30
19256;DHT22;9762;52.490;13.410;2023-10-31T10:51:58;17.10;91.10
19256;DHT22;9762;52.490;13.410;2023-10-31T10:54:37;17.20;90.80
19256;DHT22;9762;52.490;13.410;2023-10-31T10:57:42;17.20;90.50
19256;DHT22;9762;52.490;13.410;2023-10-31T11:00:12;17.30;90.50
19256;DHT22;9762;52.490;13.410;2023-10-31T11:02:41;17.30;90.40
19256;DHT22;9762;52.490;13.410;2023-10-31T11:05:09;17.30;90.30
19256;DHT22;9762;52.490;13.410;2023-10-31T11:07:38;17.40;90.60
19256;DHT22;9762;52.490;13.410;2023-10-31T11:10:04;17.50;90.50
19256;DHT22;9762;52.490;13.410;2023-10-31T11:12:31;17.50;90.20
19256;DHT22;9762;52.490;13.410;2023-10-31T11:15:01;17.50;89.80
19256;DHT22;9762;52.490;13.410;2023-10-31T11:17:33;17.50;90.00
19256;DHT22;9762;52.490;13.410;2023-10-31T11:20:02;17.60;90.00
19256;DHT22;9762;52.490;13.410;2023-10-31T11:22:38;17.60;89.80
19256;DHT22;9762;52.490;13.410;2023-10-31T11:25:06;17.60;90.10
19256;DHT22;9762;52.490;13.410;2023-10-31T11:27:34;17.60;90.20
19256;DHT22;9762;52.490;13.410;2023-10-31T11:30:01;17.70;89.50
19256;DHT22;9762;52.490;13.410;2023-10-31T11:32:32;17.70;89.70
19256;DHT22;9762;52.490;13.410;2023-10-31T11:34:59;17.70;89.80
19256;DHT22;9762;52.490;13.410;2023-10-31T11:37:31;17.70;89.60
19256;DHT22;9762;52.490;13.410;2023-10-31T11:40:16;17.70;89.20
19256;DHT22;9762;52.490;13.410;2023-10-31T11:42:42;17.80;89.40
19256;DHT22;9762;52.490;13.410;2023-10-31T11:45:08;17.80;89.50
19256;DHT22;9762;52.490;13.410;2023-10-31T11:47:50;17.80;89.80
19256;DHT22;9762;52.490;13.410;2023-10-31T11:50:17;17.80;89.60
19256;DHT22;9762;52.490;13.410;2023-10-31T11:52:43;17.80;88.90
19256;DHT22;9762;52.490;13.410;2023-10-31T11:55:10;17.80;88.70
19256;DHT22;9762;52.490;13.410;2023-10-31T11:57:36;17.70;88.80
19256;DHT22;9762;52.490;13.410;2023-10-31T12:00:03;17.70;89.00
19256;DHT22;9762;52.490;13.410;2023-10-31T12:02:29;17.70;89.60
19256;DHT22;9762;52.490;13.410;2023-10-31T12:05:14;17.60;89.40
19256;DHT22;9762;52.490;13.410;2023-10-31T12:07:44;17.60;89.50
19256;DHT22;9762;52.490;13.410;2023-10-31T12:10:10;17.50;88.60
19256;DHT22;9762;52.490;13.410;2023-10-31T12:12:36;17.40;87.70
19256;DHT22;9762;52.490;13.410;2023-10-31T12:17:32;17.30;88.80
19256;DHT22;9762;52.490;13.410;2023-10-31T12:20:02;17.30;89.20
19256;DHT22;9762;52.490;13.410;2023-10-31T12:22:28;17.30;88.80
19256;DHT22;9762;52.490;13.410;2023-10-31T12:25:01;17.30;88.60
19256;DHT22;9762;52.490;13.410;2023-10-31T12:27:45;17.30;88.50
19256;DHT22;9762;52.490;13.410;2023-10-31T12:30:12;17.30;89.20
19256;DHT22;9762;52.490;13.410;2023-10-31T12:32:40;17.30;89.20
19256;DHT22;9762;52.490;13.410;2023-10-31T12:35:06;17.30;89.10
19256;DHT22;9762;52.490;13.410;2023-10-31T12:37:32;17.30;88.50
19256;DHT22;9762;52.490;13.410;2023-10-31T12:39:58;17.30;88.40
19256;DHT22;9762;52.490;13.410;2023-10-31T12:42:30;17.30;88.40
19256;DHT22;9762;52.490;13.410;2023-10-31T12:44:57;17.30;87.70
19256;DHT22;9762;52.490;13.410;2023-10-31T12:47:24;17.30;87.70
19256;DHT22;9762;52.490;13.410;2023-10-31T12:50:11;17.30;87.20
19256;DHT22;9762;52.490;13.410;2023-10-31T12:53:04;17.20;87.30
19256;DHT22;9762;52.490;13.410;2023-10-31T12:55:31;17.20;86.90
19256;DHT22;9762;52.490;13.410;2023-10-31T12:58:04;17.20;87.30
19256;DHT22;9762;52.490;13.410;2023-10-31T13:00:34;17.20;87.90
19256;DHT22;9762;52.490;13.410;2023-10-31T13:03:02;17.20;87.20
19256;DHT22;9762;52.490;13.410;2023-10-31T13:05:28;17.20;87.50
19256;DHT22;9762;52.490;13.410;2023-10-31T13:07:55;17.20;87.50
19256;DHT22;9762;52.490;13.410;2023-10-31T13:10:26;17.20;87.20
19256;DHT22;9762;52.490;13.410;2023-10-31T13:12:53;17.20;88.00
19256;DHT22;9762;52.490;13.410;2023-10-31T13:15:23;17.20;88.50
19256;DHT22;9762;52.490;13.410;2023-10-31T13:17:52;17.30;88.70
19256;DHT22;9762;52.490;13.410;2023-10-31T13:20:18;17.20;88.70
19256;DHT22;9762;52.490;13.410;2023-10-31T13:22:45;17.30;88.60
19256;DHT22;9762;52.490;13.410;2023-10-31T13:25:13;17.30;88.20
19256;DHT22;9762;52.490;13.410;2023-10-31T13:27:40;17.20;88.10
19256;DHT22;9762;52.490;13.410;2023-10-31T13:30:11;17.20;88.10
19256;DHT22;9762;52.490;13.410;2023-10-31T13:32:38;17.30;88.40
19256;DHT22;9762;52.490;13.410;2023-10-31T13:35:07;17.30;88.40
19256;DHT22;9762;52.490;13.410;2023-10-31T13:37:36;17.20;88.60
19256;DHT22;9762;52.490;13.410;2023-10-31T13:40:05;17.20;88.80
19256;DHT22;9762;52.490;13.410;2023-10-31T13:42:34;17.20;88.80
19256;DHT22;9762;52.490;13.410;2023-10-31T13:44:59;17.10;88.70
19256;DHT22;9762;52.490;13.410;2023-10-31T13:47:25;17.10;89.10
19256;DHT22;9762;52.490;13.410;2023-10-31T13:49:50;17.10;89.40
19256;DHT22;9762;52.490;13.410;2023-10-31T13:52:16;17.10;90.00
19256;DHT22;9762;52.490;13.410;2023-10-31T13:54:42;17.10;90.10
19256;DHT22;9762;52.490;13.410;2023-10-31T13:57:09;17.00;90.30
19256;DHT22;9762;52.490;13.410;2023-10-31T13:59:34;16.90;90.60
19256;DHT22;9762;52.490;13.410;2023-10-31T14:02:00;16.90;91.20
19256;DHT22;9762;52.490;13.410;2023-10-31T14:04:25;16.80;91.40
19256;DHT22;9762;52.490;13.410;2023-10-31T14:06:51;16.70;91.70
19256;DHT22;9762;52.490;13.410;2023-10-31T14:09:17;16.60;92.00
19256;DHT22;9762;52.490;13.410;2023-10-31T14:11:43;16.60;92.20
19256;DHT22;9762;52.490;13.410;2023-10-31T14:14:08;16.60;92.20
19256;DHT22;9762;52.490;13.410;2023-10-31T14:16:42;16.60;92.10
19256;DHT22;9762;52.490;13.410;2023-10-31T14:19:11;16.60;92.30
19256;DHT22;9762;52.490;13.410;2023-10-31T14:21:39;16.60;92.40
19256;DHT22;9762;52.490;13.410;2023-10-31T14:24:05;16.60;92.50
19256;DHT22;9762;52.490;13.410;2023-10-31T14:26:31;16.70;92.80
19256;DHT22;9762;52.490;13.410;2023-10-31T14:28:58;16.70;92.80
19256;DHT22;9762;52.490;13.410;2023-10-31T14:31:25;16.70;92.90
19256;DHT22;9762;52.490;13.410;2023-10-31T14:33:50;16.70;93.20
19256;DHT22;9762;52.490;13.410;2023-10-31T14:36:16;16.80;93.50
19256;DHT22;9762;52.490;13.410;2023-10-31T14:38:42;16.80;93.60
19256;DHT22;9762;52.490;13.410;2023-10-31T14:41:08;16.80;93.90
19256;DHT22;9762;52.490;13.410;2023-10-31T14:43:34;16.80;94.10
19256;DHT22;9762;52.490;13.410;2023-10-31T14:46:00;16.80;94.30
19256;DHT22;9762;52.490;13.410;2023-10-31T14:48:27;16.70;94.30
19256;DHT22;9762;52.490;13.410;2023-10-31T14:50:52;16.70;94.50
19256;DHT22;9762;52.490;13.410;2023-10-31T14:53:18;16.70;94.60
19256;DHT22;9762;52.490;13.410;2023-10-31T14:55:47;16.70;94.80
19256;DHT22;9762;52.490;13.410;2023-10-31T14:58:14;16.60;94.90
19256;DHT22;9762;52.490;13.410;2023-10-31T15:00:40;16.50;94.90
19256;DHT22;9762;52.490;13.410;2023-10-31T15:03:05;16.60;95.20
19256;DHT22;9762;52.490;13.410;2023-10-31T15:05:32;16.50;95.40
19256;DHT22;9762;52.490;13.410;2023-10-31T15:07:58;16.40;95.40
19256;DHT22;9762;52.490;13.410;2023-10-31T15:10:24;16.40;95.60
19256;DHT22;9762;52.490;13.410;2023-10-31T15:12:51;16.40;95.60
19256;DHT22;9762;52.490;13.410;2023-10-31T15:15:17;16.30;95.70
19256;DHT22;9762;52.490;13.410;2023-10-31T15:17:44;16.30;95.70
19256;DHT22;9762;52.490;13.410;2023-10-31T15:20:10;16.30;95.80
19256;DHT22;9762;52.490;13.410;2023-10-31T15:22:37;16.30;95.90
19256;DHT22;9762;52.490;13.410;2023-10-31T15:25:03;16.20;96.30
19256;DHT22;9762;52.490;13.410;2023-10-31T15:27:29;16.10;96.50
19256;DHT22;9762;52.490;13.410;2023-10-31T15:29:55;16.20;96.70
19256;DHT22;9762;52.490;13.410;2023-10-31T15:32:20;16.10;96.60
19256;DHT22;9762;52.490;13.410;2023-10-31T15:34:46;16.10;96.70
19256;DHT22;9762;52.490;13.410;2023-10-31T15:37:12;16.20;96.70
19256;DHT22;9762;52.490;13.410;2023-10-31T15:39:38;16.20;96.70